Time;durP1;ratioP1;P1;durP2;ratioP2;P2;SDS_P1;SDS_P2;PMS_P1;PMS_P2;Temp;Humidity;BMP_temperature;BMP_pressure;BME280_temperature;BME280_humidity;BME280_pressure;Samples;Min_cycle;Max_cycle;Signal;HPM_P1;HPM_P2
2024/01/28 00:00:14;;;;;;;27.23;11.30;;;2.30;99.90;;;;;;5081472;28;20461;-69
2024/01/28 00:02:41;;;;;;;30.70;13.43;;;2.20;99.90;;;;;;5080059;28;20531;-69
2024/01/28 00:05:08;;;;;;;13.90;9.70;;;2.10;99.90;;;;;;5076434;28;20485;-69
2024/01/28 00:07:36;;;;;;;19.67;8.37;;;2.00;99.90;;;;;;5080389;28;20471;-70
2024/01/28 00:10:03;;;;;;;16.33;12.10;;;2.00;99.90;;;;;;5075685;28;20464;-69
2024/01/28 00:12:29;;;;;;;19.63;8.57;;;2.10;99.90;;;;;;5075308;28;20763;-68
2024/01/28 00:14:56;;;;;;;12.97;8.37;;;2.10;99.90;;;;;;5075518;28;20577;-69
2024/01/28 00:17:23;;;;;;;20.87;8.60;;;2.10;99.90;;;;;;5074958;28;20464;-69
2024/01/28 00:19:50;;;;;;;14.30;7.93;;;2.00;99.90;;;;;;5077987;28;20428;-69
2024/01/28 00:22:16;;;;;;;18.13;6.97;;;1.90;99.90;;;;;;5072336;28;20457;-69
2024/01/28 00:24:44;;;;;;;19.07;8.30;;;1.80;99.90;;;;;;5074564;28;20879;-69
2024/01/28 00:27:11;;;;;;;24.17;9.13;;;1.90;99.90;;;;;;5070860;28;20477;-69
2024/01/28 00:29:38;;;;;;;23.30;10.83;;;1.80;99.90;;;;;;5075788;28;20436;-68
2024/01/28 00:32:05;;;;;;;19.50;8.17;;;1.80;99.90;;;;;;5075048;28;20432;-68
2024/01/28 00:34:32;;;;;;;16.77;7.83;;;1.80;99.90;;;;;;5078699;28;20490;-69
2024/01/28 00:37:00;;;;;;;13.93;7.20;;;1.60;99.90;;;;;;5073365;28;20466;-69
2024/01/28 00:39:26;;;;;;;27.80;8.20;;;1.60;99.90;;;;;;5076448;28;21080;-68
2024/01/28 00:41:54;;;;;;;27.77;6.40;;;1.50;99.90;;;;;;5072897;28;20439;-69
2024/01/28 00:44:21;;;;;;;19.37;9.70;;;1.40;99.90;;;;;;5078584;28;20426;-68
2024/01/28 00:46:48;;;;;;;9.70;7.60;;;1.40;99.90;;;;;;5076072;28;20502;-68
2024/01/28 00:49:15;;;;;;;14.60;7.07;;;1.40;99.90;;;;;;5078416;28;20436;-69
2024/01/28 00:51:42;;;;;;;17.07;9.40;;;1.40;99.90;;;;;;5072845;28;20484;-69
2024/01/28 00:54:08;;;;;;;13.90;7.93;;;1.40;99.90;;;;;;5080793;28;20434;-68
2024/01/28 00:56:35;;;;;;;16.00;9.17;;;1.50;99.90;;;;;;5074232;28;20522;-70
2024/01/28 00:59:03;;;;;;;14.50;8.30;;;1.50;99.90;;;;;;5078223;28;20993;-69
2024/01/28 01:01:30;;;;;;;14.90;7.90;;;1.60;99.90;;;;;;5079521;28;20449;-68
2024/01/28 01:03:56;;;;;;;21.87;7.47;;;1.50;99.90;;;;;;5079734;28;20436;-68
2024/01/28 01:06:23;;;;;;;14.13;6.47;;;1.50;99.90;;;;;;5074956;28;20501;-69
2024/01/28 01:08:50;;;;;;;17.27;6.63;;;1.50;99.90;;;;;;5064250;28;20436;-68
2024/01/28 01:11:16;;;;;;;15.90;9.33;;;1.40;99.90;;;;;;5077273;28;20441;-68
2024/01/28 01:13:43;;;;;;;12.80;7.50;;;1.30;99.90;;;;;;5065256;28;20425;-69
2024/01/28 01:16:11;;;;;;;16.40;6.60;;;1.30;99.90;;;;;;5061438;28;20481;-69
2024/01/28 01:18:38;;;;;;;27.27;9.97;;;1.20;99.90;;;;;;5077216;28;20436;-68
2024/01/28 01:21:05;;;;;;;11.17;6.90;;;1.20;99.90;;;;;;5072776;28;21181;-70
2024/01/28 01:23:32;;;;;;;22.30;8.20;;;1.20;99.90;;;;;;5080872;28;20436;-68
2024/01/28 01:25:58;;;;;;;17.53;8.87;;;1.30;99.90;;;;;;5080632;28;20471;-68
2024/01/28 01:28:31;;;;;;;14.53;8.63;;;1.30;99.90;;;;;;5076870;28;20821;-68
2024/01/28 01:30:58;;;;;;;22.67;10.23;;;1.40;99.90;;;;;;5076874;28;20476;-69
2024/01/28 01:33:26;;;;;;;24.47;8.47;;;1.30;99.90;;;;;;5078507;28;20476;-69
2024/01/28 01:35:56;;;;;;;16.63;6.67;;;1.40;99.90;;;;;;5074808;28;20505;-69
2024/01/28 01:38:23;;;;;;;28.90;9.60;;;1.40;99.90;;;;;;5073538;28;21255;-69
2024/01/28 01:40:50;;;;;;;23.50;7.27;;;1.30;99.90;;;;;;5075380;28;20459;-69
2024/01/28 01:43:17;;;;;;;10.27;6.77;;;1.30;99.90;;;;;;5074646;28;20935;-69
2024/01/28 01:45:44;;;;;;;5.87;5.10;;;1.30;99.90;;;;;;5076840;28;20480;-69
2024/01/28 01:48:13;;;;;;;10.30;6.40;;;1.30;99.90;;;;;;5071862;28;20489;-69
2024/01/28 01:50:42;;;;;;;14.90;6.40;;;1.20;99.90;;;;;;5073543;28;20472;-69
2024/01/28 01:53:10;;;;;;;6.97;5.57;;;1.00;99.90;;;;;;5073553;28;20473;-69
2024/01/28 01:55:39;;;;;;;19.07;7.50;;;0.80;99.90;;;;;;5072685;28;20555;-69
2024/01/28 01:58:07;;;;;;;12.10;5.20;;;0.80;99.90;;;;;;5087014;22;20512;-67
2024/01/28 02:00:35;;;;;;;7.30;5.67;;;0.80;99.90;;;;;;5073905;28;20458;-68
2024/01/28 02:03:03;;;;;;;11.63;7.53;;;0.90;99.90;;;;;;5070788;28;20462;-68
2024/01/28 02:05:30;;;;;;;14.10;8.50;;;0.90;99.90;;;;;;5062656;28;20491;-68
2024/01/28 02:07:58;;;;;;;12.77;5.87;;;0.80;99.90;;;;;;5058681;28;20952;-68
2024/01/28 02:10:25;;;;;;;14.57;6.23;;;0.80;99.90;;;;;;5047562;28;20451;-69
2024/01/28 02:12:52;;;;;;;12.43;5.43;;;0.80;99.90;;;;;;5054712;28;20436;-68
2024/01/28 02:15:19;;;;;;;10.43;6.10;;;0.70;99.90;;;;;;5048341;28;20453;-68
2024/01/28 02:17:46;;;;;;;3.60;3.30;;;0.80;99.90;;;;;;5054642;28;20473;-68
2024/01/28 02:20:13;;;;;;;8.27;4.83;;;0.80;99.90;;;;;;5051960;28;20460;-67
2024/01/28 02:22:40;;;;;;;10.00;6.43;;;0.90;99.90;;;;;;5057125;28;20482;-68
2024/01/28 02:25:08;;;;;;;4.10;3.73;;;1.00;99.90;;;;;;5059012;28;20987;-68
2024/01/28 02:27:36;;;;;;;6.73;6.03;;;0.90;99.90;;;;;;5058317;28;20474;-68
2024/01/28 02:30:04;;;;;;;17.10;7.60;;;1.00;99.90;;;;;;5050933;28;20437;-68
2024/01/28 02:32:30;;;;;;;7.70;4.40;;;1.00;99.90;;;;;;5056566;28;20446;-68
2024/01/28 02:34:57;;;;;;;9.70;5.30;;;1.10;99.90;;;;;;5052202;28;20527;-68
2024/01/28 02:37:24;;;;;;;9.23;5.70;;;1.20;99.90;;;;;;5053872;28;20438;-69
2024/01/28 02:39:51;;;;;;;12.40;5.20;;;1.20;99.90;;;;;;5054775;28;20468;-68
2024/01/28 02:42:21;;;;;;;4.63;3.67;;;1.20;99.90;;;;;;5060107;28;20459;-68
2024/01/28 02:44:48;;;;;;;8.23;5.63;;;1.10;99.90;;;;;;5064275;28;20454;-68
2024/01/28 02:47:15;;;;;;;10.97;4.50;;;1.20;99.90;;;;;;5064458;28;20460;-69
2024/01/28 02:49:41;;;;;;;10.07;4.40;;;1.30;99.90;;;;;;5055419;28;20954;-69
2024/01/28 02:52:08;;;;;;;20.37;7.00;;;1.20;99.90;;;;;;5058169;28;20440;-69
2024/01/28 02:54:35;;;;;;;9.77;4.20;;;1.30;99.90;;;;;;5061334;28;20462;-69
2024/01/28 02:57:02;;;;;;;12.77;4.93;;;1.20;99.90;;;;;;5063572;28;20528;-68
2024/01/28 02:59:30;;;;;;;7.90;4.20;;;1.10;99.90;;;;;;5055737;28;20432;-68
2024/01/28 03:01:58;;;;;;;6.00;4.20;;;1.20;99.90;;;;;;5038698;28;20444;-69
2024/01/28 03:04:24;;;;;;;5.90;3.60;;;1.20;99.90;;;;;;5048664;28;20451;-68
2024/01/28 03:06:51;;;;;;;9.70;4.20;;;1.20;99.90;;;;;;5042921;28;20569;-68
2024/01/28 03:09:18;;;;;;;3.97;3.50;;;1.30;99.90;;;;;;5051189;28;20468;-68
2024/01/28 03:11:45;;;;;;;5.90;3.67;;;1.20;99.90;;;;;;5052433;28;20468;-68
2024/01/28 03:14:12;;;;;;;5.90;5.30;;;1.30;99.90;;;;;;5046146;28;20449;-69
2024/01/28 03:16:40;;;;;;;19.27;5.50;;;1.20;99.90;;;;;;5047429;28;20444;-69
2024/01/28 03:19:07;;;;;;;8.27;5.30;;;1.30;99.90;;;;;;5043382;28;21158;-69
2024/01/28 03:21:34;;;;;;;7.40;4.90;;;1.20;99.90;;;;;;5042524;28;20437;-68
2024/01/28 03:24:00;;;;;;;10.73;5.20;;;1.20;99.90;;;;;;5050224;28;20470;-69
2024/01/28 03:26:27;;;;;;;10.73;4.90;;;1.00;99.90;;;;;;5053638;28;20460;-68
2024/01/28 03:28:54;;;;;;;10.17;4.37;;;1.10;99.90;;;;;;5060156;28;20486;-67
2024/01/28 03:31:20;;;;;;;9.07;4.10;;;1.10;99.90;;;;;;5057145;28;20429;-67
2024/01/28 03:33:49;;;;;;;5.97;4.73;;;1.10;99.90;;;;;;5049219;28;20441;-69
2024/01/28 03:36:15;;;;;;;14.33;6.10;;;1.00;99.90;;;;;;5055922;28;20488;-68
2024/01/28 03:38:42;;;;;;;9.10;5.60;;;0.90;99.90;;;;;;5061312;28;20454;-69
2024/01/28 03:41:09;;;;;;;13.17;5.17;;;1.00;99.90;;;;;;5058807;28;20532;-69
2024/01/28 03:43:36;;;;;;;8.60;5.03;;;0.90;99.90;;;;;;5056867;28;20470;-68
2024/01/28 03:46:03;;;;;;;9.93;5.10;;;1.00;99.90;;;;;;5055551;28;20492;-68
2024/01/28 03:48:30;;;;;;;8.03;3.83;;;1.00;99.90;;;;;;5057404;28;21032;-67
2024/01/28 03:50:58;;;;;;;4.60;3.57;;;0.90;99.90;;;;;;5060869;28;20437;-68
2024/01/28 03:53:27;;;;;;;4.87;4.43;;;0.90;99.90;;;;;;5056334;28;20459;-68
2024/01/28 03:55:54;;;;;;;7.27;4.87;;;1.00;99.90;;;;;;5061290;28;20461;-68
2024/01/28 03:58:21;;;;;;;9.97;4.90;;;1.00;99.90;;;;;;5058349;28;20895;-68
2024/01/28 04:00:48;;;;;;;5.03;3.60;;;0.90;99.90;;;;;;5059710;28;20464;-68
2024/01/28 04:03:14;;;;;;;7.43;4.30;;;0.70;99.90;;;;;;5052887;28;20559;-68
2024/01/28 04:05:43;;;;;;;9.60;4.97;;;0.70;99.90;;;;;;5056089;28;20452;-68
2024/01/28 04:08:11;;;;;;;5.50;3.83;;;0.80;99.90;;;;;;5051435;28;20490;-68
2024/01/28 04:10:38;;;;;;;10.03;4.17;;;0.70;99.90;;;;;;5055916;28;21150;-68
2024/01/28 04:13:05;;;;;;;5.23;3.77;;;0.60;99.90;;;;;;5058574;28;20470;-68
2024/01/28 04:15:32;;;;;;;4.87;3.53;;;0.70;99.90;;;;;;5046685;28;20457;-69
2024/01/28 04:17:59;;;;;;;5.90;5.30;;;0.70;99.90;;;;;;5057599;28;20518;-68
2024/01/28 04:20:26;;;;;;;7.80;5.73;;;0.80;99.90;;;;;;5056537;28;20429;-68
2024/01/28 04:22:52;;;;;;;7.17;6.47;;;0.70;99.90;;;;;;5062558;28;20790;-68
2024/01/28 04:25:20;;;;;;;13.27;6.97;;;0.70;99.90;;;;;;5065197;28;20453;-68
2024/01/28 04:27:47;;;;;;;3.83;3.50;;;0.50;99.90;;;;;;5062967;28;20482;-69
2024/01/28 04:30:14;;;;;;;10.27;4.77;;;0.50;99.90;;;;;;5058475;28;20441;-69
2024/01/28 04:32:42;;;;;;;6.03;5.43;;;0.50;99.90;;;;;;5052042;28;20441;-69
2024/01/28 04:35:12;;;;;;;10.80;3.07;;;0.60;99.90;;;;;;5053086;28;20478;-68
2024/01/28 04:37:39;;;;;;;9.17;6.43;;;0.60;99.90;;;;;;5064573;28;20439;-68
2024/01/28 04:40:06;;;;;;;8.37;5.20;;;0.60;99.90;;;;;;5058996;28;20441;-68
2024/01/28 04:42:35;;;;;;;11.30;4.47;;;0.50;99.90;;;;;;5057436;28;20814;-68
2024/01/28 04:45:02;;;;;;;5.20;3.57;;;0.40;99.90;;;;;;5061233;28;20462;-68
2024/01/28 04:47:29;;;;;;;7.43;4.20;;;0.20;99.90;;;;;;5054011;28;20452;-68
2024/01/28 04:49:56;;;;;;;12.00;2.90;;;0.10;99.90;;;;;;5058414;28;20469;-68
2024/01/28 04:52:23;;;;;;;6.30;3.00;;;0.10;99.90;;;;;;5056164;28;20434;-68
2024/01/28 04:54:50;;;;;;;5.30;2.90;;;0.20;99.90;;;;;;5057115;28;20482;-68
2024/01/28 04:57:17;;;;;;;7.50;4.20;;;0.20;99.90;;;;;;5054739;28;20813;-68
2024/01/28 04:59:45;;;;;;;4.40;3.67;;;0.30;99.90;;;;;;5057251;28;20561;-68
2024/01/28 05:02:12;;;;;;;5.30;4.33;;;0.30;99.90;;;;;;5058172;28;20535;-68
2024/01/28 05:04:39;;;;;;;7.47;3.73;;;0.40;99.90;;;;;;5056603;28;20825;-69
2024/01/28 05:07:05;;;;;;;2.70;2.50;;;0.40;99.90;;;;;;5052423;28;20437;-69
2024/01/28 05:09:32;;;;;;;5.47;4.10;;;0.50;99.90;;;;;;5050251;28;20465;-70
2024/01/28 05:11:59;;;;;;;4.13;3.40;;;0.60;99.90;;;;;;5051147;28;20974;-68
2024/01/28 05:14:26;;;;;;;3.27;2.13;;;0.50;99.90;;;;;;5051947;28;20445;-68
2024/01/28 05:16:54;;;;;;;9.50;5.30;;;0.40;99.90;;;;;;5052628;28;21311;-68
2024/01/28 05:19:21;;;;;;;9.10;5.37;;;0.40;99.90;;;;;;5057162;28;20451;-68
2024/01/28 05:21:47;;;;;;;7.70;2.83;;;0.50;99.90;;;;;;5059568;28;21073;-68
2024/01/28 05:24:14;;;;;;;8.40;5.03;;;0.50;99.90;;;;;;5058873;28;20841;-68
2024/01/28 05:26:42;;;;;;;10.43;3.00;;;0.50;99.90;;;;;;5057517;28;20879;-68
2024/01/28 05:29:09;;;;;;;4.50;4.10;;;0.30;99.90;;;;;;5057865;28;20811;-68
2024/01/28 05:31:37;;;;;;;6.20;4.13;;;0.30;99.90;;;;;;5057042;28;20615;-68
2024/01/28 05:34:05;;;;;;;4.57;3.03;;;0.30;99.90;;;;;;5055464;28;20468;-68
2024/01/28 05:36:32;;;;;;;3.60;3.30;;;0.20;99.90;;;;;;5053757;28;20482;-68
2024/01/28 05:38:59;;;;;;;8.00;4.10;;;0.30;99.90;;;;;;5053449;28;20553;-68
2024/01/28 05:41:26;;;;;;;4.77;3.07;;;0.20;99.90;;;;;;5055951;28;20442;-68
2024/01/28 05:43:53;;;;;;;4.30;2.90;;;0.40;99.90;;;;;;5050866;28;20445;-68
2024/01/28 05:46:19;;;;;;;3.90;3.10;;;0.30;99.90;;;;;;5047483;28;20490;-68
2024/01/28 05:48:46;;;;;;;4.07;3.67;;;0.20;99.90;;;;;;5048603;28;20516;-68
2024/01/28 05:51:14;;;;;;;5.40;4.53;;;0.30;99.90;;;;;;5051974;28;21099;-68
2024/01/28 05:53:41;;;;;;;2.47;2.23;;;0.30;99.90;;;;;;5046481;28;21111;-68
2024/01/28 05:56:08;;;;;;;4.27;3.87;;;0.30;99.90;;;;;;5056770;28;20536;-68
2024/01/28 05:58:35;;;;;;;2.53;2.30;;;0.20;99.90;;;;;;5052609;28;20925;-68
2024/01/28 06:01:06;;;;;;;3.87;2.60;;;0.30;99.90;;;;;;5049266;28;20469;-67
2024/01/28 06:03:33;;;;;;;6.23;3.03;;;0.40;99.90;;;;;;5052756;28;20482;-68
2024/01/28 06:06:03;;;;;;;2.50;2.07;;;0.30;99.90;;;;;;5054221;28;21404;-67
2024/01/28 06:08:31;;;;;;;5.17;2.73;;;0.40;99.90;;;;;;5052418;28;20905;-68
2024/01/28 06:10:59;;;;;;;14.70;3.20;;;0.40;99.90;;;;;;5055793;28;20489;-67
2024/01/28 06:13:25;;;;;;;6.30;2.47;;;0.40;99.90;;;;;;5053470;28;20746;-67
2024/01/28 06:15:53;;;;;;;2.90;2.03;;;0.20;99.90;;;;;;5050809;28;20505;-67
2024/01/28 06:18:20;;;;;;;2.43;2.23;;;0.20;99.90;;;;;;5059451;28;20441;-67
2024/01/28 06:20:47;;;;;;;4.33;2.50;;;0.30;99.90;;;;;;5056492;28;20832;-68
2024/01/28 06:23:14;;;;;;;3.03;2.83;;;0.30;99.90;;;;;;5058529;28;20453;-68
2024/01/28 06:25:42;;;;;;;10.10;3.37;;;0.30;99.90;;;;;;5048768;28;20482;-68
2024/01/28 06:28:11;;;;;;;6.60;4.00;;;0.30;99.90;;;;;;5058276;28;20449;-67
2024/01/28 06:30:38;;;;;;;5.83;5.20;;;0.40;99.90;;;;;;5056919;28;20433;-68
2024/01/28 06:33:06;;;;;;;5.97;3.37;;;0.20;99.90;;;;;;5058710;28;20509;-68
2024/01/28 06:35:32;;;;;;;4.27;3.37;;;0.10;99.90;;;;;;5056935;28;20485;-68
2024/01/28 06:37:59;;;;;;;7.07;3.57;;;0.00;99.90;;;;;;5055780;28;20432;-68
2024/01/28 06:40:26;;;;;;;7.40;4.20;;;0.00;99.90;;;;;;5055607;28;20435;-68
2024/01/28 06:42:54;;;;;;;5.00;3.80;;;-0.20;99.90;;;;;;5057278;28;20433;-68
2024/01/28 06:45:21;;;;;;;19.23;4.90;;;-0.20;99.90;;;;;;5059022;28;20449;-68
2024/01/28 06:47:49;;;;;;;9.03;3.60;;;-0.10;99.90;;;;;;5061040;28;20536;-68
2024/01/28 06:50:16;;;;;;;5.03;3.23;;;0.00;99.90;;;;;;5057093;28;20458;-69
2024/01/28 06:52:43;;;;;;;4.87;3.83;;;0.00;99.90;;;;;;5058302;28;20462;-68
2024/01/28 06:55:10;;;;;;;6.53;3.53;;;0.00;99.90;;;;;;5059553;28;20886;-68
2024/01/28 06:57:37;;;;;;;6.20;2.80;;;-0.10;99.90;;;;;;5042267;28;20477;-68
2024/01/28 07:00:10;;;;;;;2.67;2.30;;;-0.10;99.90;;;;;;5061539;28;20802;-68
2024/01/28 07:02:37;;;;;;;9.50;3.50;;;0.00;99.90;;;;;;5051752;28;20429;-68
2024/01/28 07:05:04;;;;;;;4.53;2.70;;;-0.10;99.90;;;;;;5060113;28;20573;-68
2024/01/28 07:07:31;;;;;;;6.87;3.27;;;-0.10;99.90;;;;;;5050927;28;21082;-69
2024/01/28 07:09:58;;;;;;;6.40;3.27;;;-0.10;99.90;;;;;;5057979;28;20452;-68
2024/01/28 07:12:24;;;;;;;19.03;6.00;;;-0.10;99.90;;;;;;5056145;28;20451;-68
2024/01/28 07:14:51;;;;;;;10.83;3.50;;;-0.10;99.90;;;;;;5051368;28;20452;-68
2024/01/28 07:17:19;;;;;;;9.93;4.93;;;-0.30;99.90;;;;;;5049011;28;21048;-68
2024/01/28 07:19:46;;;;;;;2.50;2.30;;;-0.30;99.90;;;;;;5048652;28;20455;-68
2024/01/28 07:22:13;;;;;;;19.37;4.60;;;-0.20;99.90;;;;;;5053533;28;20846;-69
2024/01/28 07:24:40;;;;;;;8.97;3.70;;;-0.20;99.90;;;;;;5052830;28;20463;-69
2024/01/28 07:27:07;;;;;;;6.40;4.57;;;-0.30;99.90;;;;;;5051437;28;20433;-69
2024/01/28 07:29:34;;;;;;;7.03;3.83;;;-0.40;99.90;;;;;;5050614;28;20674;-68
2024/01/28 07:32:01;;;;;;;6.57;3.33;;;-0.30;99.90;;;;;;5056931;28;20524;-68
2024/01/28 07:34:29;;;;;;;3.43;3.13;;;-0.30;99.90;;;;;;5054714;28;21041;-69
2024/01/28 07:36:57;;;;;;;19.07;3.10;;;-0.40;99.90;;;;;;5050494;28;20448;-68
2024/01/28 07:39:24;;;;;;;7.30;4.13;;;-0.30;99.90;;;;;;5052596;28;20974;-68
2024/01/28 07:41:51;;;;;;;3.20;2.90;;;-0.10;99.90;;;;;;5044524;28;22497;-68
2024/01/28 07:44:18;;;;;;;6.53;4.30;;;0.20;99.90;;;;;;5047559;28;20435;-67
2024/01/28 07:46:45;;;;;;;4.03;3.13;;;0.40;99.90;;;;;;5052440;28;20457;-66
2024/01/28 07:49:12;;;;;;;6.67;4.10;;;0.70;99.90;;;;;;5054835;28;20513;-68
2024/01/28 07:51:40;;;;;;;4.53;4.00;;;1.00;99.90;;;;;;5046809;28;20433;-67
2024/01/28 07:54:07;;;;;;;5.73;3.57;;;1.20;99.90;;;;;;5054947;28;20445;-66
2024/01/28 07:56:33;;;;;;;2.73;2.53;;;1.10;99.90;;;;;;5070582;22;21583;-68
2024/01/28 07:59:00;;;;;;;7.83;4.30;;;1.10;99.90;;;;;;5030918;28;20459;-68
2024/01/28 08:01:30;;;;;;;9.27;5.07;;;1.10;99.90;;;;;;5033835;28;20453;-69
2024/01/28 08:03:56;;;;;;;4.03;2.27;;;1.20;99.90;;;;;;5034424;28;20470;-69
2024/01/28 08:06:23;;;;;;;4.20;3.73;;;1.30;99.90;;;;;;5021017;28;20457;-69
2024/01/28 08:08:52;;;;;;;4.60;3.70;;;1.40;99.90;;;;;;5027170;28;20578;-68
2024/01/28 08:11:19;;;;;;;3.07;2.87;;;1.60;99.90;;;;;;5025721;28;20905;-69
2024/01/28 08:13:48;;;;;;;7.90;4.60;;;1.70;99.90;;;;;;5025800;28;20438;-69
2024/01/28 08:16:15;;;;;;;10.93;5.43;;;1.90;99.90;;;;;;5028494;28;20810;-71
2024/01/28 08:18:42;;;;;;;11.80;5.53;;;2.10;99.90;;;;;;5034961;28;20479;-70
2024/01/28 08:21:09;;;;;;;6.23;4.80;;;2.20;99.90;;;;;;5036682;28;20460;-71
2024/01/28 08:23:36;;;;;;;9.60;4.20;;;2.50;99.90;;;;;;5034176;28;20455;-71
2024/01/28 08:26:04;;;;;;;5.10;3.63;;;2.80;99.90;;;;;;5041434;28;20476;-70
2024/01/28 08:28:31;;;;;;;3.73;3.20;;;3.00;99.90;;;;;;5027536;28;22029;-72
2024/01/28 08:30:58;;;;;;;9.27;4.27;;;2.90;99.90;;;;;;5019985;28;20449;-71
2024/01/28 08:33:25;;;;;;;4.77;3.80;;;3.00;99.90;;;;;;5013460;28;20449;-71
2024/01/28 08:41:03;;;;;;;6.40;4.43;;;3.50;99.90;;;;;;6003733;22;20466;-71
2024/01/28 08:43:30;;;;;;;7.60;3.33;;;3.70;99.90;;;;;;5091052;27;20937;-71
2024/01/28 08:45:57;;;;;;;4.40;2.57;;;4.30;99.90;;;;;;5089206;28;21321;-71
2024/01/28 08:48:24;;;;;;;6.70;3.80;;;5.10;99.90;;;;;;5085550;28;20464;-72
2024/01/28 08:50:50;;;;;;;5.83;4.90;;;5.60;99.90;;;;;;5086658;28;20468;-70
2024/01/28 08:53:17;;;;;;;4.77;3.17;;;6.30;99.90;;;;;;5089644;28;21563;-71
2024/01/28 08:55:44;;;;;;;6.10;3.53;;;7.30;99.90;;;;;;5071806;28;20483;-72
2024/01/28 08:58:12;;;;;;;5.73;3.30;;;8.20;99.90;;;;;;5093892;28;20519;-72
2024/01/28 09:00:40;;;;;;;5.10;3.40;;;9.20;99.90;;;;;;5083675;28;21286;-72
2024/01/28 09:03:06;;;;;;;4.10;3.07;;;10.00;99.90;;;;;;5084848;28;20984;-72
2024/01/28 09:05:33;;;;;;;7.53;4.00;;;10.40;99.90;;;;;;5086741;28;20954;-72
2024/01/28 09:08:00;;;;;;;5.57;3.60;;;10.80;99.90;;;;;;5082442;27;20467;-72
2024/01/28 09:10:27;;;;;;;3.00;2.43;;;11.40;99.90;;;;;;5076541;28;20487;-72
2024/01/28 09:12:53;;;;;;;4.60;3.33;;;12.00;99.90;;;;;;5090898;28;20469;-72
2024/01/28 09:15:23;;;;;;;9.30;3.47;;;12.50;99.90;;;;;;5086740;28;20484;-72
2024/01/28 09:17:50;;;;;;;3.43;3.00;;;12.70;99.90;;;;;;5083178;28;20456;-72
2024/01/28 09:20:17;;;;;;;7.80;3.10;;;12.70;99.90;;;;;;5082437;28;20449;-72
2024/01/28 09:22:43;;;;;;;9.83;3.70;;;12.20;99.90;;;;;;5087679;28;20461;-72
2024/01/28 09:25:11;;;;;;;5.37;4.10;;;11.30;99.90;;;;;;5084975;28;20477;-71
2024/01/28 09:27:38;;;;;;;7.10;4.07;;;10.70;99.90;;;;;;5095139;28;20457;-72
2024/01/28 09:30:06;;;;;;;5.90;5.30;;;10.30;99.90;;;;;;5087222;28;20480;-72
2024/01/28 09:32:37;;;;;;;4.37;3.67;;;10.10;99.90;;;;;;5090177;28;20455;-73
2024/01/28 09:35:04;;;;;;;3.70;3.00;;;10.50;99.90;;;;;;5093923;28;20621;-73
2024/01/28 09:37:31;;;;;;;4.20;2.63;;;11.40;99.90;;;;;;5089136;28;20464;-72
2024/01/28 09:39:57;;;;;;;4.40;3.67;;;12.10;99.90;;;;;;5088534;28;20465;-73
2024/01/28 09:42:31;;;;;;;11.30;4.03;;;12.50;99.90;;;;;;5085168;28;20464;-73
2024/01/28 09:44:59;;;;;;;8.30;3.23;;;12.30;99.90;;;;;;5088891;28;20480;-72
2024/01/28 09:47:28;;;;;;;4.77;3.80;;;11.40;99.90;;;;;;5084143;28;20483;-72
2024/01/28 09:49:59;;;;;;;3.40;3.10;;;10.80;99.90;;;;;;5089257;28;20565;-72
2024/01/28 09:52:27;;;;;;;7.33;3.97;;;10.20;99.90;;;;;;5093630;28;20492;-71
2024/01/28 09:54:54;;;;;;;7.00;4.47;;;9.40;99.90;;;;;;5094620;28;20484;-72
2024/01/28 09:57:21;;;;;;;6.30;4.97;;;8.80;99.90;;;;;;5093299;28;21518;-73
2024/01/28 09:59:48;;;;;;;4.57;3.53;;;8.50;99.90;;;;;;5087786;27;20446;-72
2024/01/28 10:02:16;;;;;;;4.77;3.70;;;8.60;99.90;;;;;;5088673;27;20449;-72
2024/01/28 10:04:45;;;;;;;8.73;4.00;;;8.90;99.90;;;;;;5091820;27;21387;-72
2024/01/28 10:07:15;;;;;;;4.23;3.40;;;9.20;99.90;;;;;;5094084;27;20461;-72
2024/01/28 10:09:42;;;;;;;4.47;3.83;;;9.50;99.90;;;;;;5092031;27;21079;-72
2024/01/28 10:12:10;;;;;;;8.27;3.67;;;10.60;99.90;;;;;;5068282;28;20462;-73
2024/01/28 10:14:37;;;;;;;11.13;5.40;;;12.40;99.90;;;;;;5088073;27;20488;-73
2024/01/28 10:17:04;;;;;;;12.73;3.77;;;13.40;99.90;;;;;;5094720;27;20479;-71
2024/01/28 10:19:31;;;;;;;8.30;4.60;;;13.20;99.90;;;;;;5089095;28;20790;-72
2024/01/28 10:21:59;;;;;;;15.77;4.50;;;12.50;99.90;;;;;;5091860;28;20503;-72
2024/01/28 10:24:27;;;;;;;6.60;4.87;;;12.20;99.90;;;;;;5088537;27;20521;-73
2024/01/28 10:26:57;;;;;;;7.97;5.30;;;12.30;99.90;;;;;;5096890;27;20472;-71
2024/01/28 10:29:25;;;;;;;9.80;5.70;;;13.50;99.90;;;;;;5093086;28;22796;-72
2024/01/28 10:31:52;;;;;;;9.97;5.07;;;14.70;99.90;;;;;;5092440;27;20460;-72
2024/01/28 10:34:21;;;;;;;11.60;5.40;;;15.10;98.40;;;;;;5089245;27;20461;-72
2024/01/28 10:36:49;;;;;;;4.13;3.47;;;14.90;97.60;;;;;;5092864;27;20572;-72
2024/01/28 10:39:18;;;;;;;6.33;3.83;;;14.60;96.40;;;;;;5094714;28;20457;-71
2024/01/28 10:41:52;;;;;;;5.50;3.23;;;14.50;98.00;;;;;;5088596;27;20477;-72
2024/01/28 10:44:21;;;;;;;6.37;4.17;;;15.40;96.60;;;;;;5087943;28;20456;-71
2024/01/28 10:46:54;;;;;;;5.70;2.77;;;16.80;96.00;;;;;;5097306;28;20483;-72
2024/01/28 10:49:29;;;;;;;3.90;2.90;;;17.90;93.00;;;;;;5089373;28;21050;-72
2024/01/28 10:51:57;;;;;;;5.60;3.63;;;18.90;91.90;;;;;;5087540;27;20460;-73
2024/01/28 10:54:24;;;;;;;5.03;3.00;;;19.70;88.00;;;;;;5091316;27;20471;-72
2024/01/28 10:56:55;;;;;;;6.67;3.03;;;19.70;80.90;;;;;;5094031;27;20478;-72
2024/01/28 10:59:22;;;;;;;6.67;3.57;;;19.70;79.60;;;;;;5090853;28;20457;-73
2024/01/28 11:01:49;;;;;;;3.73;2.60;;;20.10;77.70;;;;;;5082051;27;20461;-72
2024/01/28 11:04:16;;;;;;;8.87;3.87;;;20.40;76.20;;;;;;5092748;28;20452;-73
2024/01/28 11:06:42;;;;;;;5.83;3.63;;;21.00;74.00;;;;;;5089701;27;20465;-73
2024/01/28 11:09:09;;;;;;;5.30;3.00;;;21.10;73.70;;;;;;5093545;28;22323;-71
2024/01/28 11:11:37;;;;;;;5.20;3.20;;;21.40;73.60;;;;;;5087321;28;20963;-72
2024/01/28 11:14:08;;;;;;;5.73;3.67;;;21.40;71.00;;;;;;5095403;28;20453;-72
2024/01/28 11:16:37;;;;;;;5.63;3.73;;;20.70;69.90;;;;;;5082632;28;20481;-73
2024/01/28 11:19:07;;;;;;;5.53;3.67;;;20.90;69.90;;;;;;5090937;28;20488;-73
2024/01/28 11:21:34;;;;;;;6.90;4.07;;;22.10;67.20;;;;;;5089892;27;20473;-73
2024/01/28 11:24:06;;;;;;;7.50;4.00;;;22.40;65.50;;;;;;5091880;27;20566;-72
2024/01/28 11:26:36;;;;;;;6.30;4.00;;;22.80;61.80;;;;;;5095293;27;20549;-73
2024/01/28 11:29:09;;;;;;;3.23;2.93;;;23.10;61.00;;;;;;5092037;28;20460;-72
2024/01/28 11:31:38;;;;;;;4.10;3.20;;;23.30;58.90;;;;;;5091899;28;20484;-72
2024/01/28 11:34:13;;;;;;;5.90;3.27;;;23.20;59.50;;;;;;5091306;27;20563;-73
2024/01/28 11:36:44;;;;;;;4.50;2.67;;;23.60;57.20;;;;;;5083949;27;20575;-72
2024/01/28 11:39:13;;;;;;;4.50;3.20;;;23.90;56.80;;;;;;5093059;28;20460;-73
2024/01/28 11:41:42;;;;;;;3.23;2.80;;;23.90;57.10;;;;;;5092311;27;20460;-72
2024/01/28 11:44:11;;;;;;;3.23;2.40;;;24.10;56.90;;;;;;5097967;28;20456;-72
2024/01/28 11:46:39;;;;;;;5.70;3.57;;;24.30;55.70;;;;;;5092219;27;20483;-72
2024/01/28 11:49:07;;;;;;;9.00;3.23;;;24.30;55.70;;;;;;5097046;28;20526;-72
2024/01/28 11:51:34;;;;;;;4.73;3.03;;;24.10;54.80;;;;;;5096049;28;20579;-72
2024/01/28 11:54:05;;;;;;;7.80;4.60;;;24.50;54.60;;;;;;5092627;28;20464;-72
2024/01/28 11:56:32;;;;;;;10.60;3.43;;;24.80;54.30;;;;;;5095197;28;20484;-72
2024/01/28 11:59:00;;;;;;;3.20;2.60;;;24.80;54.20;;;;;;5096655;27;20468;-72
2024/01/28 12:01:28;;;;;;;3.93;2.50;;;24.70;53.50;;;;;;5094311;28;20555;-72
2024/01/28 12:03:55;;;;;;;5.57;3.70;;;25.40;52.80;;;;;;5092326;27;20468;-72
2024/01/28 12:06:23;;;;;;;4.60;3.37;;;25.80;52.40;;;;;;5095745;27;20476;-73
2024/01/28 12:08:50;;;;;;;3.83;2.57;;;25.80;51.60;;;;;;5091390;28;20485;-73
2024/01/28 12:11:19;;;;;;;3.97;2.30;;;26.10;50.50;;;;;;5102246;27;20794;-73
2024/01/28 12:13:46;;;;;;;3.83;2.50;;;26.00;51.00;;;;;;5099693;27;20476;-72
2024/01/28 12:16:13;;;;;;;3.20;2.80;;;26.20;50.50;;;;;;5090813;28;20484;-72
2024/01/28 12:18:42;;;;;;;3.27;2.13;;;26.50;50.40;;;;;;5094691;27;20465;-72
2024/01/28 12:21:17;;;;;;;2.57;2.13;;;26.50;49.90;;;;;;5094987;27;20449;-72
2024/01/28 12:23:46;;;;;;;2.30;2.00;;;26.70;50.00;;;;;;5097971;28;20463;-71
2024/01/28 12:26:12;;;;;;;2.83;1.90;;;26.90;48.50;;;;;;5097050;28;20476;-72
2024/01/28 12:28:40;;;;;;;2.47;1.80;;;27.00;48.70;;;;;;5100013;28;20460;-72
2024/01/28 12:31:08;;;;;;;4.33;1.80;;;27.10;48.10;;;;;;5094965;28;20502;-72
2024/01/28 12:33:37;;;;;;;2.60;2.17;;;27.10;47.60;;;;;;5086086;27;20457;-72
2024/01/28 12:36:06;;;;;;;3.47;2.27;;;27.00;46.60;;;;;;5092296;28;20561;-74
2024/01/28 12:38:33;;;;;;;2.20;1.87;;;27.20;46.90;;;;;;5097911;28;20460;-72
2024/01/28 12:41:02;;;;;;;2.80;1.77;;;27.10;45.60;;;;;;5092258;28;20465;-73
2024/01/28 12:43:29;;;;;;;2.13;1.60;;;27.40;45.90;;;;;;5093255;28;20457;-72
2024/01/28 12:45:55;;;;;;;1.90;1.77;;;27.30;44.90;;;;;;5084751;28;20489;-73
2024/01/28 12:48:22;;;;;;;2.27;1.43;;;26.40;45.70;;;;;;5098151;27;20458;-71
2024/01/28 12:50:49;;;;;;;2.50;1.77;;;26.10;45.50;;;;;;5092425;28;20485;-72
2024/01/28 12:53:18;;;;;;;2.77;1.70;;;26.40;46.50;;;;;;5100327;28;20468;-72
2024/01/28 12:55:44;;;;;;;2.80;2.10;;;26.80;45.60;;;;;;5088090;28;20565;-72